Time;durP1;ratioP1;P1;durP2;ratioP2;P2;SDS_P1;SDS_P2;PMS_P1;PMS_P2;Temp;Humidity;BMP_temperature;BMP_pressure;BME280_temperature;BME280_humidity;BME280_pressure;Samples;Min_cycle;Max_cycle;Signal;HPM_P1;HPM_P2
2022/04/30 00:01:28;;;;;;;18.73;10.77;;;13.30;75.20;;;;;;5017312;28;20793;-77
2022/04/30 00:03:54;;;;;;;14.27;10.03;;;13.20;74.90;;;;;;5004041;28;20417;-76
2022/04/30 00:06:20;;;;;;;15.17;10.90;;;13.20;75.20;;;;;;5014258;28;20526;-77
2022/04/30 00:08:45;;;;;;;15.00;10.70;;;13.30;74.90;;;;;;5022828;28;20253;-75
2022/04/30 00:11:11;;;;;;;14.30;10.27;;;13.20;74.80;;;;;;5019086;28;20202;-75
2022/04/30 00:13:38;;;;;;;16.87;10.87;;;13.20;74.50;;;;;;5026432;28;20232;-77
2022/04/30 00:16:04;;;;;;;13.80;9.47;;;13.20;74.80;;;;;;5019997;28;20436;-75
2022/04/30 00:18:30;;;;;;;11.50;8.30;;;13.30;74.90;;;;;;5014188;28;20560;-76
2022/04/30 00:20:58;;;;;;;11.90;8.57;;;13.40;74.30;;;;;;5012927;28;20586;-77
2022/04/30 00:23:24;;;;;;;13.80;9.80;;;13.40;74.00;;;;;;5009443;28;20459;-76
2022/04/30 00:25:53;;;;;;;15.23;9.80;;;13.60;74.00;;;;;;5014454;28;20429;-75
2022/04/30 00:28:20;;;;;;;13.00;9.90;;;13.60;73.90;;;;;;5012132;28;20444;-75
2022/04/30 00:30:46;;;;;;;21.53;10.10;;;13.50;73.30;;;;;;5010156;28;20840;-76
2022/04/30 00:33:12;;;;;;;16.23;10.67;;;13.30;74.00;;;;;;5022028;28;20424;-74
2022/04/30 00:35:39;;;;;;;14.60;10.07;;;13.20;74.50;;;;;;5016237;28;20467;-74
2022/04/30 00:38:05;;;;;;;14.17;10.43;;;13.30;74.50;;;;;;5011755;28;20452;-76
2022/04/30 00:40:31;;;;;;;15.43;11.23;;;13.30;74.00;;;;;;5010343;28;20958;-77
2022/04/30 00:42:57;;;;;;;15.47;10.30;;;13.40;73.00;;;;;;5004617;28;20925;-76
2022/04/30 00:45:23;;;;;;;16.10;10.23;;;13.40;73.20;;;;;;5009677;28;20525;-77
2022/04/30 00:47:48;;;;;;;17.43;11.00;;;13.40;73.20;;;;;;5014004;28;20203;-75
2022/04/30 00:50:16;;;;;;;18.77;11.17;;;13.40;73.30;;;;;;5015491;28;20213;-76
2022/04/30 00:52:46;;;;;;;15.43;10.93;;;13.30;71.70;;;;;;5020274;28;20289;-77
2022/04/30 00:55:13;;;;;;;20.03;11.07;;;13.40;72.10;;;;;;5012850;28;20510;-77
2022/04/30 00:57:43;;;;;;;14.80;10.20;;;13.40;71.10;;;;;;5014305;28;20419;-77
2022/04/30 01:00:10;;;;;;;14.50;10.03;;;13.40;71.70;;;;;;5015895;28;20436;-77
2022/04/30 01:02:36;;;;;;;16.10;11.17;;;13.50;71.40;;;;;;5011165;28;20429;-77
2022/04/30 01:05:02;;;;;;;18.67;11.20;;;13.50;71.40;;;;;;5011070;28;20459;-76
2022/04/30 01:07:30;;;;;;;21.67;12.07;;;13.50;71.10;;;;;;5010067;28;20497;-77
2022/04/30 01:09:56;;;;;;;18.10;12.07;;;13.40;71.40;;;;;;5009843;28;20800;-75
2022/04/30 01:12:23;;;;;;;22.93;12.40;;;13.30;72.60;;;;;;5010120;28;20950;-77
2022/04/30 01:14:51;;;;;;;20.60;12.87;;;13.30;73.50;;;;;;5011572;28;20602;-77
2022/04/30 01:17:17;;;;;;;23.77;13.43;;;13.20;74.20;;;;;;5010996;28;20417;-78
2022/04/30 01:19:43;;;;;;;22.43;14.03;;;13.20;74.80;;;;;;5009661;28;20445;-76
2022/04/30 01:22:20;;;;;;;28.90;13.93;;;13.20;75.50;;;;;;5015115;28;20512;-76
2022/04/30 01:24:47;;;;;;;23.57;14.87;;;13.20;76.10;;;;;;5027793;28;20431;-76
2022/04/30 01:27:14;;;;;;;28.97;15.33;;;13.10;77.30;;;;;;5019795;28;20857;-77
2022/04/30 01:29:40;;;;;;;29.27;16.90;;;13.10;77.80;;;;;;5019404;28;20487;-75
2022/04/30 01:37:37;;;;;;;39.23;18.63;;;13.00;80.00;;;;;;5018932;28;20825;-76
2022/04/30 01:40:04;;;;;;;37.03;16.60;;;13.10;79.70;;;;;;5019895;28;20449;-76
2022/04/30 01:42:35;;;;;;;29.40;15.97;;;13.00;80.30;;;;;;5013265;28;20914;-78
2022/04/30 01:45:04;;;;;;;44.73;18.40;;;12.90;81.10;;;;;;5018944;28;20487;-77
2022/04/30 01:47:32;;;;;;;37.13;17.57;;;12.80;82.10;;;;;;5014577;28;20429;-77
2022/04/30 01:49:58;;;;;;;38.80;17.60;;;12.70;82.20;;;;;;5014872;28;20471;-76
2022/04/30 01:52:24;;;;;;;33.50;17.53;;;12.70;82.80;;;;;;5018033;28;21029;-76
2022/04/30 01:54:49;;;;;;;37.73;16.83;;;12.80;82.80;;;;;;5021178;28;20209;-77
2022/04/30 01:57:23;;;;;;;33.37;17.83;;;12.80;82.80;;;;;;5022699;28;20197;-79
2022/04/30 01:59:51;;;;;;;33.73;18.03;;;12.90;82.50;;;;;;5018249;28;20680;-78
2022/04/30 02:02:18;;;;;;;35.40;18.20;;;12.90;82.40;;;;;;5015404;28;20433;-77
2022/04/30 02:04:43;;;;;;;41.20;18.53;;;12.90;82.70;;;;;;5019077;28;20439;-78
2022/04/30 02:07:11;;;;;;;34.43;17.13;;;12.80;83.10;;;;;;5034607;28;20448;-78
2022/04/30 02:09:38;;;;;;;33.63;18.33;;;12.70;83.70;;;;;;5026832;28;20461;-78
2022/04/30 02:12:04;;;;;;;41.30;16.80;;;12.70;84.00;;;;;;5021822;28;20425;-77
2022/04/30 02:14:31;;;;;;;37.87;18.10;;;12.70;83.80;;;;;;5025095;28;20468;-78
2022/04/30 02:17:01;;;;;;;34.77;17.80;;;12.70;83.80;;;;;;5023299;28;21105;-77
2022/04/30 02:19:28;;;;;;;44.60;19.50;;;12.60;84.30;;;;;;5019471;28;20444;-77
2022/04/30 02:21:57;;;;;;;35.23;17.83;;;12.60;84.40;;;;;;5023619;28;20421;-75
2022/04/30 02:24:26;;;;;;;37.40;18.27;;;12.60;84.60;;;;;;5020636;28;20436;-77
2022/04/30 02:26:52;;;;;;;39.70;18.10;;;12.60;84.60;;;;;;5027560;28;20466;-77
2022/04/30 02:29:17;;;;;;;39.97;18.20;;;12.60;84.70;;;;;;5020747;28;20936;-77
2022/04/30 02:31:44;;;;;;;39.53;17.07;;;12.50;84.90;;;;;;5013729;28;20448;-77
2022/04/30 02:34:10;;;;;;;35.77;18.80;;;12.40;85.20;;;;;;5020855;28;20695;-77
2022/04/30 02:36:36;;;;;;;34.33;17.10;;;12.50;85.30;;;;;;5014804;28;20435;-76
2022/04/30 02:39:02;;;;;;;40.37;19.67;;;12.30;85.60;;;;;;5016564;28;20212;-77
2022/04/30 02:41:29;;;;;;;35.83;17.23;;;12.40;85.70;;;;;;5019649;28;20214;-79
2022/04/30 02:43:56;;;;;;;37.13;19.70;;;12.30;85.70;;;;;;5026095;28;20429;-77
2022/04/30 02:46:22;;;;;;;32.33;16.90;;;12.30;85.70;;;;;;5022305;28;20513;-77
2022/04/30 02:48:48;;;;;;;28.40;16.03;;;12.30;85.90;;;;;;5025004;28;20472;-77
2022/04/30 02:51:15;;;;;;;30.60;15.73;;;12.40;85.60;;;;;;5022266;28;20794;-77
2022/04/30 02:53:42;;;;;;;32.70;16.23;;;12.40;84.90;;;;;;5017617;28;20439;-78
2022/04/30 02:56:11;;;;;;;35.00;16.73;;;12.30;85.30;;;;;;5023084;28;20451;-77
2022/04/30 03:01:22;;;;;;;34.60;15.50;;;12.50;84.70;;;;;;5019988;28;20471;-77
2022/04/30 03:03:48;;;;;;;40.37;18.70;;;12.40;84.90;;;;;;5022364;28;20840;-76
2022/04/30 03:06:15;;;;;;;39.33;16.47;;;12.40;85.20;;;;;;5016597;28;20424;-78
2022/04/30 03:08:43;;;;;;;42.13;18.10;;;12.30;85.50;;;;;;5022933;28;20233;-76
2022/04/30 03:11:09;;;;;;;32.83;17.63;;;12.30;85.60;;;;;;5020869;28;20412;-77
2022/04/30 03:13:36;;;;;;;34.03;17.10;;;12.30;85.70;;;;;;5023314;28;20421;-77
2022/04/30 03:21:44;;;;;;;42.97;19.30;;;12.30;86.00;;;;;;5023415;28;20444;-78
2022/04/30 03:24:11;;;;;;;38.80;19.53;;;12.30;86.20;;;;;;5021916;28;20496;-77
2022/04/30 03:26:37;;;;;;;35.23;18.00;;;12.20;86.80;;;;;;5020450;28;20421;-78
2022/04/30 03:29:03;;;;;;;36.03;17.37;;;12.10;87.00;;;;;;5028568;28;20536;-76
2022/04/30 03:31:32;;;;;;;32.90;16.93;;;12.10;87.40;;;;;;5028387;28;20178;-79
2022/04/30 03:33:58;;;;;;;37.80;19.27;;;12.20;87.40;;;;;;5021169;28;20467;-77
2022/04/30 03:36:24;;;;;;;41.17;19.97;;;12.20;87.10;;;;;;5021102;28;20799;-79
2022/04/30 03:38:49;;;;;;;38.67;20.60;;;12.10;87.70;;;;;;5032376;28;20260;-77
2022/04/30 03:41:16;;;;;;;46.50;22.10;;;12.20;87.60;;;;;;5035927;28;20182;-77
2022/04/30 03:43:42;;;;;;;46.53;20.90;;;12.10;87.80;;;;;;5032370;28;20249;-77
2022/04/30 03:46:08;;;;;;;43.57;22.73;;;12.10;88.10;;;;;;5036299;28;20424;-78
2022/04/30 03:48:34;;;;;;;50.77;22.30;;;12.10;88.40;;;;;;5030212;28;20458;-77
2022/04/30 03:51:00;;;;;;;49.67;22.17;;;12.00;88.90;;;;;;5036645;28;20190;-78
2022/04/30 03:53:26;;;;;;;41.67;22.00;;;12.00;89.00;;;;;;5032822;28;20424;-77
2022/04/30 03:55:52;;;;;;;44.60;21.53;;;12.00;89.20;;;;;;5025935;28;20472;-76
2022/04/30 03:58:19;;;;;;;50.13;22.77;;;11.90;89.50;;;;;;5016368;28;20194;-78
2022/04/30 04:00:46;;;;;;;54.50;23.77;;;11.90;89.90;;;;;;5013685;28;20431;-77
2022/04/30 04:03:13;;;;;;;43.13;23.00;;;11.90;89.90;;;;;;5013739;28;20421;-77
2022/04/30 04:05:39;;;;;;;46.47;23.47;;;11.90;90.00;;;;;;5015212;28;20512;-75
2022/04/30 04:08:12;;;;;;;47.50;23.80;;;11.90;89.90;;;;;;5021210;28;20465;-77
2022/04/30 04:10:41;;;;;;;52.63;24.20;;;11.90;89.90;;;;;;5011676;28;20499;-76
2022/04/30 04:18:36;;;;;;;47.90;24.67;;;11.50;90.60;;;;;;5018793;28;20956;-78
2022/04/30 04:21:02;;;;;;;53.33;25.77;;;11.40;90.90;;;;;;5021187;28;20425;-77
2022/04/30 04:23:28;;;;;;;54.37;25.83;;;11.50;91.00;;;;;;5022224;28;20247;-78
2022/04/30 04:26:00;;;;;;;56.90;26.40;;;11.50;90.90;;;;;;5014426;28;20429;-77
2022/04/30 04:28:27;;;;;;;51.00;24.87;;;11.50;91.00;;;;;;5016201;28;20458;-78
2022/04/30 04:30:53;;;;;;;65.13;24.53;;;11.50;90.90;;;;;;5014459;28;20429;-78
2022/04/30 04:33:19;;;;;;;50.27;24.20;;;11.50;91.00;;;;;;5019381;28;20436;-77
2022/04/30 04:35:44;;;;;;;52.00;25.47;;;11.50;91.10;;;;;;5017109;28;20847;-78
2022/04/30 04:38:10;;;;;;;52.77;24.90;;;11.50;91.20;;;;;;5013773;28;20189;-78
2022/04/30 04:40:36;;;;;;;51.70;24.17;;;11.60;91.30;;;;;;5012467;28;20252;-78
2022/04/30 04:43:02;;;;;;;51.67;25.10;;;11.50;91.00;;;;;;5013139;28;20186;-77
2022/04/30 04:45:28;;;;;;;52.27;25.00;;;11.50;91.30;;;;;;5014223;28;20194;-77
2022/04/30 04:47:55;;;;;;;59.47;26.10;;;11.60;91.30;;;;;;5020905;28;20515;-77
2022/04/30 04:50:23;;;;;;;50.17;24.40;;;11.50;91.30;;;;;;5012596;28;20420;-78
2022/04/30 04:52:49;;;;;;;54.93;24.17;;;11.50;91.30;;;;;;5013083;28;20432;-78
2022/04/30 04:55:17;;;;;;;50.20;24.20;;;11.40;91.30;;;;;;5015511;28;20478;-77
2022/04/30 04:57:43;;;;;;;50.60;25.40;;;11.40;91.60;;;;;;5023926;28;20435;-78
2022/04/30 05:00:10;;;;;;;56.70;25.50;;;11.40;91.80;;;;;;5019059;28;20445;-78
2022/04/30 05:02:36;;;;;;;46.90;24.90;;;11.40;91.90;;;;;;5022077;28;20612;-77
2022/04/30 05:05:03;;;;;;;45.70;23.93;;;11.40;92.10;;;;;;5016125;28;20434;-77
2022/04/30 05:07:28;;;;;;;51.50;26.07;;;11.40;92.20;;;;;;5023423;28;20824;-78
2022/04/30 05:09:54;;;;;;;54.03;24.50;;;11.40;92.30;;;;;;5014828;28;20541;-77
2022/04/30 05:12:20;;;;;;;51.97;24.73;;;11.40;92.30;;;;;;5034010;28;20197;-77
2022/04/30 05:14:46;;;;;;;58.20;26.30;;;11.50;92.50;;;;;;5028233;28;20217;-78
2022/04/30 05:17:13;;;;;;;46.40;23.47;;;11.40;92.30;;;;;;5017376;28;20173;-78
2022/04/30 05:19:39;;;;;;;51.50;24.47;;;11.40;92.00;;;;;;5019951;28;20451;-79
2022/04/30 05:22:05;;;;;;;56.53;27.00;;;11.40;92.20;;;;;;5016634;28;20420;-77
2022/04/30 05:24:32;;;;;;;52.97;26.50;;;11.40;92.70;;;;;;5018326;28;20201;-76
2022/04/30 05:26:58;;;;;;;56.70;25.60;;;11.30;92.90;;;;;;5013283;28;20460;-77
2022/04/30 05:29:24;;;;;;;52.70;24.93;;;11.30;93.20;;;;;;5014027;28;20502;-77
2022/04/30 05:31:50;;;;;;;51.83;23.87;;;11.20;93.20;;;;;;5025844;28;20428;-77
2022/04/30 05:34:15;;;;;;;54.50;26.40;;;11.20;93.20;;;;;;5029185;28;20206;-79
2022/04/30 05:36:41;;;;;;;51.93;25.33;;;11.30;93.30;;;;;;5039593;28;20193;-77
2022/04/30 05:39:07;;;;;;;48.63;24.60;;;11.30;93.20;;;;;;5026599;28;20198;-75
2022/04/30 05:41:33;;;;;;;50.60;25.80;;;11.40;93.10;;;;;;5020672;28;20221;-78
2022/04/30 05:43:58;;;;;;;62.00;29.80;;;11.40;93.00;;;;;;5022774;28;20190;-77
2022/04/30 05:46:24;;;;;;;55.47;25.57;;;11.40;93.10;;;;;;5026595;28;20231;-77
2022/04/30 05:48:50;;;;;;;48.57;26.03;;;11.40;93.00;;;;;;5016163;28;20210;-76
2022/04/30 05:51:16;;;;;;;51.73;24.83;;;11.40;93.00;;;;;;5018857;28;20808;-77
2022/04/30 05:53:42;;;;;;;48.40;25.57;;;11.40;93.10;;;;;;5013651;28;20205;-76
2022/04/30 05:56:08;;;;;;;55.00;27.10;;;11.50;93.10;;;;;;5013531;28;20548;-79
2022/04/30 05:58:34;;;;;;;51.30;26.47;;;11.40;92.90;;;;;;5013394;28;20205;-75
2022/04/30 06:01:01;;;;;;;53.27;23.67;;;11.40;93.10;;;;;;5016819;28;20432;-75
2022/04/30 06:03:29;;;;;;;53.17;25.03;;;11.40;93.20;;;;;;5022508;28;20939;-77
2022/04/30 06:05:55;;;;;;;55.53;23.90;;;11.50;93.20;;;;;;5021792;28;20487;-78
2022/04/30 06:08:20;;;;;;;46.90;24.80;;;11.40;93.00;;;;;;5024027;28;20562;-76
2022/04/30 06:10:46;;;;;;;48.47;23.80;;;11.50;93.00;;;;;;5025372;28;20199;-77
2022/04/30 06:13:12;;;;;;;52.40;25.00;;;11.60;93.10;;;;;;5027215;28;20182;-76
2022/04/30 06:15:37;;;;;;;49.77;22.80;;;11.60;92.90;;;;;;5025004;28;20232;-74
2022/04/30 06:18:03;;;;;;;53.07;24.73;;;11.60;92.80;;;;;;5025999;28;20237;-76
2022/04/30 06:20:30;;;;;;;49.10;22.57;;;11.70;93.00;;;;;;5036427;28;20510;-76
2022/04/30 06:22:55;;;;;;;49.07;23.30;;;11.80;92.70;;;;;;5025761;28;20603;-75
2022/04/30 06:25:21;;;;;;;49.27;23.93;;;11.80;92.10;;;;;;5024183;28;20425;-76
2022/04/30 06:27:47;;;;;;;48.23;25.33;;;11.70;91.90;;;;;;5018415;28;20248;-76
2022/04/30 06:30:13;;;;;;;45.40;21.03;;;11.70;92.30;;;;;;5019470;28;20194;-76
2022/04/30 06:32:39;;;;;;;43.83;22.37;;;11.80;92.30;;;;;;5023776;28;20714;-76
2022/04/30 06:35:05;;;;;;;44.70;21.90;;;11.90;92.30;;;;;;5029961;28;20328;-76
2022/04/30 06:37:30;;;;;;;43.23;23.83;;;12.10;92.30;;;;;;5016474;28;20865;-76
2022/04/30 06:39:56;;;;;;;47.57;22.57;;;12.20;92.30;;;;;;5006690;28;20485;-78
2022/04/30 06:42:22;;;;;;;44.03;22.20;;;12.20;92.00;;;;;;5004310;28;20245;-78
2022/04/30 06:44:48;;;;;;;48.90;22.10;;;12.30;91.80;;;;;;5030335;28;20195;-77
2022/04/30 06:47:14;;;;;;;47.07;22.87;;;12.50;91.50;;;;;;5022382;28;20193;-77
2022/04/30 06:49:40;;;;;;;41.63;22.37;;;12.60;91.60;;;;;;5015974;28;20268;-76
2022/04/30 06:52:07;;;;;;;41.73;20.10;;;12.70;90.80;;;;;;5016696;28;20511;-76
2022/04/30 06:57:20;;;;;;;42.60;19.70;;;12.50;90.20;;;;;;5016466;28;20434;-77
2022/04/30 06:59:46;;;;;;;40.40;20.50;;;12.40;90.10;;;;;;5005120;28;20979;-76
2022/04/30 07:02:18;;;;;;;36.97;19.80;;;12.00;90.70;;;;;;5011955;28;20436;-78
2022/04/30 07:04:46;;;;;;;39.87;21.37;;;12.00;91.20;;;;;;5016159;28;20186;-77
2022/04/30 07:07:12;;;;;;;50.90;21.50;;;12.00;91.70;;;;;;5018304;28;20987;-76
2022/04/30 07:09:38;;;;;;;39.30;21.90;;;12.10;91.40;;;;;;5013915;28;20444;-77
2022/04/30 07:12:06;;;;;;;42.97;22.50;;;12.10;91.40;;;;;;5022466;28;20209;-78
2022/04/30 07:14:37;;;;;;;40.17;21.63;;;12.00;91.60;;;;;;5022742;28;20805;-77
2022/04/30 07:17:04;;;;;;;46.30;19.97;;;12.00;91.40;;;;;;5018887;28;20416;-78
2022/04/30 07:19:30;;;;;;;38.77;18.67;;;12.00;91.40;;;;;;5022876;28;20821;-77
2022/04/30 07:21:55;;;;;;;39.70;20.93;;;12.00;91.30;;;;;;5024167;28;20429;-78
2022/04/30 07:24:21;;;;;;;45.80;23.10;;;12.00;91.10;;;;;;5029437;28;20243;-77
2022/04/30 07:26:47;;;;;;;39.73;20.33;;;12.00;91.40;;;;;;5024819;28;20193;-78
2022/04/30 07:29:13;;;;;;;39.60;20.77;;;11.90;91.50;;;;;;5025056;28;20202;-78
2022/04/30 07:31:39;;;;;;;42.90;20.83;;;11.80;91.30;;;;;;5019782;28;20256;-78
2022/04/30 07:34:04;;;;;;;42.37;19.50;;;11.80;91.70;;;;;;5017370;28;20201;-76
2022/04/30 07:36:31;;;;;;;38.03;19.67;;;12.00;91.80;;;;;;5022992;28;20451;-77
2022/04/30 07:38:57;;;;;;;38.87;19.90;;;12.10;91.40;;;;;;5028341;28;20212;-75
2022/04/30 07:41:23;;;;;;;46.50;21.87;;;12.00;91.10;;;;;;5023086;28;20431;-76
2022/04/30 07:43:50;;;;;;;40.17;18.73;;;11.90;91.20;;;;;;5020358;28;20430;-77
2022/04/30 07:46:16;;;;;;;38.40;21.90;;;12.00;91.60;;;;;;5024631;28;20432;-77
2022/04/30 07:48:42;;;;;;;44.23;21.83;;;11.90;91.00;;;;;;5021306;28;20509;-77
2022/04/30 07:51:14;;;;;;;40.80;21.23;;;11.90;91.40;;;;;;5026552;28;20182;-76
2022/04/30 07:53:41;;;;;;;41.10;20.23;;;12.00;91.30;;;;;;5029527;28;20473;-77
2022/04/30 07:56:08;;;;;;;48.83;21.93;;;11.90;91.60;;;;;;5027561;28;20492;-77
2022/04/30 07:58:33;;;;;;;36.80;19.90;;;12.00;91.70;;;;;;5024332;28;20436;-78
2022/04/30 08:00:59;;;;;;;40.07;20.90;;;12.10;91.80;;;;;;5020195;28;20444;-76
2022/04/30 08:03:25;;;;;;;42.27;21.57;;;12.30;91.60;;;;;;5023729;28;20601;-76
2022/04/30 08:05:51;;;;;;;38.57;20.23;;;12.40;91.30;;;;;;5016063;28;21127;-78
2022/04/30 08:08:17;;;;;;;40.57;21.03;;;12.30;91.10;;;;;;5021729;28;20216;-75
2022/04/30 08:10:42;;;;;;;38.77;19.90;;;12.40;91.70;;;;;;5016000;28;20190;-77
2022/04/30 08:13:08;;;;;;;39.73;21.27;;;12.50;91.30;;;;;;5020494;28;20181;-76
2022/04/30 08:15:34;;;;;;;40.83;18.87;;;12.50;91.10;;;;;;5017456;28;20214;-75
2022/04/30 08:18:00;;;;;;;34.63;18.03;;;12.50;91.10;;;;;;5017217;28;20555;-76
2022/04/30 08:20:26;;;;;;;36.23;18.73;;;12.50;90.60;;;;;;5016008;28;20432;-76
2022/04/30 08:22:52;;;;;;;35.20;18.30;;;12.30;90.70;;;;;;5019211;28;20220;-76
2022/04/30 08:25:18;;;;;;;34.90;19.40;;;12.30;91.20;;;;;;5020611;28;20193;-77
2022/04/30 08:27:44;;;;;;;34.43;19.00;;;12.30;91.10;;;;;;5025861;28;20219;-78
2022/04/30 08:30:10;;;;;;;30.30;16.87;;;12.30;91.00;;;;;;5021961;28;20446;-76
2022/04/30 08:32:36;;;;;;;39.40;19.90;;;12.30;91.20;;;;;;5019104;28;20487;-74
2022/04/30 08:35:03;;;;;;;42.40;20.77;;;12.30;91.40;;;;;;5021395;28;20519;-78
2022/04/30 08:37:29;;;;;;;37.73;18.30;;;12.30;91.30;;;;;;5019427;28;20412;-76
2022/04/30 08:39:55;;;;;;;35.73;18.47;;;12.10;91.20;;;;;;5005533;28;20441;-76
2022/04/30 08:42:23;;;;;;;31.07;17.63;;;12.00;91.50;;;;;;5007284;28;20431;-75
2022/04/30 08:44:49;;;;;;;34.67;19.23;;;12.10;91.70;;;;;;5015183;28;20431;-77
2022/04/30 08:47:15;;;;;;;34.80;18.60;;;12.20;91.90;;;;;;5023587;28;21011;-76
2022/04/30 08:49:42;;;;;;;33.03;16.90;;;12.20;91.80;;;;;;5021853;28;20448;-76
2022/04/30 08:52:09;;;;;;;33.70;19.00;;;12.10;91.30;;;;;;5007398;28;20467;-74
2022/04/30 08:54:35;;;;;;;35.13;17.33;;;12.10;91.50;;;;;;5017864;28;20570;-77
2022/04/30 08:57:01;;;;;;;29.87;17.07;;;12.00;91.20;;;;;;5009086;28;20947;-75
2022/04/30 08:59:29;;;;;;;32.70;17.37;;;12.00;91.30;;;;;;5018385;28;20456;-76
2022/04/30 09:01:58;;;;;;;34.57;17.47;;;11.80;91.70;;;;;;5005889;28;20425;-76
2022/04/30 09:04:25;;;;;;;39.90;19.07;;;11.70;92.00;;;;;;5013185;28;20442;-77
2022/04/30 09:06:55;;;;;;;28.50;16.07;;;11.80;92.30;;;;;;5012460;28;20502;-76
2022/04/30 09:09:30;;;;;;;28.97;15.60;;;11.80;92.00;;;;;;5012189;28;20452;-76
2022/04/30 09:12:07;;;;;;;33.03;16.70;;;11.90;92.10;;;;;;5011625;28;20506;-76
2022/04/30 09:14:33;;;;;;;28.20;16.10;;;11.90;91.90;;;;;;5010876;28;20480;-75
2022/04/30 09:17:12;;;;;;;32.67;17.00;;;11.80;91.40;;;;;;5015973;28;20420;-74
2022/04/30 09:20:04;;;;;;;27.37;16.20;;;11.90;91.70;;;;;;5015136;28;20436;-77
2022/04/30 09:22:34;;;;;;;30.17;16.97;;;12.00;91.90;;;;;;5008354;28;20527;-75
2022/04/30 09:25:02;;;;;;;36.50;19.50;;;12.00;91.90;;;;;;5014378;28;20429;-73
2022/04/30 09:27:28;;;;;;;32.60;16.20;;;11.90;91.50;;;;;;5012175;28;21156;-77
2022/04/30 09:29:54;;;;;;;29.00;16.53;;;11.90;91.90;;;;;;5017697;28;20468;-73
2022/04/30 09:32:25;;;;;;;37.50;16.50;;;11.90;91.60;;;;;;5015284;28;20281;-75
2022/04/30 09:37:42;;;;;;;25.00;14.70;;;11.70;91.30;;;;;;5014558;28;20420;-74
2022/04/30 09:40:28;;;;;;;23.20;12.80;;;11.80;92.00;;;;;;5012492;28;20487;-76
2022/04/30 09:42:54;;;;;;;23.30;13.93;;;11.80;91.60;;;;;;5005200;28;20411;-75
2022/04/30 09:45:25;;;;;;;22.90;13.07;;;11.80;91.50;;;;;;5016518;28;20424;-76
2022/04/30 09:47:53;;;;;;;25.13;13.50;;;11.90;91.50;;;;;;5017951;28;20814;-77
2022/04/30 09:55:53;;;;;;;17.50;10.20;;;12.10;90.40;;;;;;5019380;28;20494;-75
2022/04/30 09:58:26;;;;;;;20.40;11.07;;;11.90;89.90;;;;;;5017734;28;20455;-76
2022/04/30 10:00:57;;;;;;;19.40;12.00;;;12.00;90.20;;;;;;5023793;28;20520;-76
2022/04/30 10:03:30;;;;;;;22.73;11.20;;;12.20;90.30;;;;;;5017620;28;20504;-76
2022/04/30 10:06:02;;;;;;;18.80;10.77;;;12.20;90.00;;;;;;5016944;28;20424;-75
2022/04/30 10:08:32;;;;;;;17.50;10.80;;;12.40;89.00;;;;;;5018775;28;20877;-76
2022/04/30 10:11:06;;;;;;;16.23;11.70;;;12.60;88.70;;;;;;5010890;28;20425;-74
2022/04/30 10:13:57;;;;;;;21.67;11.77;;;12.70;87.10;;;;;;5012963;28;20428;-75
2022/04/30 10:16:30;;;;;;;21.17;11.93;;;12.50;87.40;;;;;;5017019;28;20421;-74
2022/04/30 10:19:16;;;;;;;19.03;11.57;;;12.50;88.40;;;;;;5007591;28;20889;-74
2022/04/30 10:21:42;;;;;;;17.30;10.27;;;12.50;88.70;;;;;;5012879;28;20408;-75
2022/04/30 10:24:12;;;;;;;20.40;12.40;;;12.50;88.30;;;;;;5016304;28;20449;-75
2022/04/30 10:26:57;;;;;;;22.83;12.90;;;12.30;89.00;;;;;;5022109;28;20419;-75
2022/04/30 10:29:23;;;;;;;20.20;12.80;;;12.50;89.90;;;;;;5017243;28;20467;-75
2022/04/30 10:31:49;;;;;;;21.17;11.80;;;12.50;89.20;;;;;;5018460;28;20909;-75
2022/04/30 10:34:15;;;;;;;19.33;11.87;;;12.60;88.70;;;;;;5022952;28;20206;-75
2022/04/30 10:36:41;;;;;;;29.33;15.87;;;12.70;88.30;;;;;;5019103;28;20420;-74
2022/04/30 10:39:18;;;;;;;22.93;13.10;;;12.70;88.00;;;;;;5012198;28;20440;-75
2022/04/30 10:41:53;;;;;;;20.27;12.93;;;13.00;88.40;;;;;;5004839;28;20723;-74
2022/04/30 10:44:29;;;;;;;17.80;10.80;;;13.20;87.30;;;;;;5017171;28;20416;-76
2022/04/30 10:46:55;;;;;;;20.77;12.33;;;13.20;87.00;;;;;;5010053;28;20439;-76
2022/04/30 10:49:21;;;;;;;19.83;12.50;;;13.20;87.10;;;;;;5016928;28;20447;-76
2022/04/30 10:51:47;;;;;;;20.43;11.60;;;13.30;86.80;;;;;;5007035;28;20186;-75
2022/04/30 10:54:18;;;;;;;17.93;10.70;;;13.00;87.40;;;;;;5016393;28;20213;-76
2022/04/30 10:56:45;;;;;;;18.70;11.57;;;12.70;89.30;;;;;;5013442;28;20186;-76
2022/04/30 10:59:20;;;;;;;19.97;11.60;;;12.60;90.20;;;;;;5013612;28;20449;-75
2022/04/30 11:01:50;;;;;;;20.83;10.80;;;12.60;90.30;;;;;;5013165;28;20416;-75
2022/04/30 11:04:20;;;;;;;19.43;11.87;;;12.50;90.40;;;;;;5013171;28;20922;-75
2022/04/30 11:06:51;;;;;;;12.50;9.13;;;12.60;90.70;;;;;;5016823;28;20440;-76
2022/04/30 11:09:18;;;;;;;11.43;6.70;;;12.60;90.20;;;;;;5016285;28;20468;-73
2022/04/30 11:11:47;;;;;;;14.20;7.87;;;12.50;88.60;;;;;;5018612;28;20422;-75
2022/04/30 11:14:13;;;;;;;11.07;7.27;;;12.50;88.90;;;;;;5017562;28;20461;-76
2022/04/30 11:16:41;;;;;;;11.07;6.17;;;12.30;87.40;;;;;;5020232;28;20552;-78
2022/04/30 11:19:12;;;;;;;7.63;5.60;;;12.20;86.90;;;;;;5020811;28;20499;-75
2022/04/30 11:21:43;;;;;;;8.17;5.60;;;12.30;87.80;;;;;;5029363;28;20413;-76
2022/04/30 11:24:11;;;;;;;8.67;6.00;;;12.30;86.90;;;;;;5023705;28;20420;-78
2022/04/30 11:26:37;;;;;;;11.70;6.17;;;12.30;88.10;;;;;;5022593;28;20482;-77
2022/04/30 11:29:11;;;;;;;8.80;6.13;;;12.60;88.40;;;;;;5013346;28;20846;-77
2022/04/30 11:31:37;;;;;;;10.40;6.13;;;12.80;86.50;;;;;;5019019;28;20977;-78
2022/04/30 11:34:17;;;;;;;12.20;6.50;;;13.00;85.70;;;;;;5013380;28;20445;-76
2022/04/30 11:36:49;;;;;;;8.23;6.23;;;13.20;85.50;;;;;;5019440;28;20443;-78
2022/04/30 11:39:16;;;;;;;9.00;6.20;;;13.60;84.10;;;;;;5015793;28;20959;-78
2022/04/30 11:41:43;;;;;;;7.60;5.40;;;13.70;83.10;;;;;;5008281;28;20418;-77
2022/04/30 11:44:10;;;;;;;11.83;6.30;;;14.00;84.00;;;;;;5014504;28;20926;-77
2022/04/30 11:46:38;;;;;;;10.80;6.50;;;13.90;80.30;;;;;;5021755;28;20420;-76
2022/04/30 11:49:12;;;;;;;7.20;5.77;;;14.00;81.40;;;;;;5015117;28;20445;-77
2022/04/30 11:51:38;;;;;;;7.80;5.90;;;14.00;80.60;;;;;;5008512;28;20463;-77
2022/04/30 11:54:08;;;;;;;11.67;7.90;;;14.10;80.00;;;;;;5019232;28;20912;-75
2022/04/30 11:56:35;;;;;;;9.90;7.07;;;14.40;80.60;;;;;;5011753;28;20423;-78
2022/04/30 11:59:01;;;;;;;9.50;6.53;;;14.40;80.00;;;;;;5020696;28;20787;-76
2022/04/30 12:01:30;;;;;;;9.23;6.60;;;13.90;78.10;;;;;;5010708;28;20453;-77
2022/04/30 12:04:00;;;;;;;7.00;5.73;;;13.50;80.50;;;;;;5016434;28;20178;-77
2022/04/30 12:06:27;;;;;;;7.47;6.20;;;13.30;80.90;;;;;;5016016;28;20417;-78
2022/04/30 12:08:53;;;;;;;10.77;6.70;;;13.40;82.20;;;;;;5018406;28;20817;-76
2022/04/30 12:11:19;;;;;;;9.77;6.17;;;13.70;81.80;;;;;;5017748;28;20414;-77
2022/04/30 12:14:00;;;;;;;8.67;6.60;;;14.30;80.60;;;;;;5015207;28;20277;-77
2022/04/30 12:16:33;;;;;;;10.93;7.43;;;14.60;78.60;;;;;;5014537;28;20417;-77
2022/04/30 12:24:40;;;;;;;8.50;6.60;;;13.30;84.00;;;;;;5020878;28;20415;-77
2022/04/30 12:27:09;;;;;;;7.90;6.40;;;13.30;83.40;;;;;;5012093;28;20425;-76
2022/04/30 12:29:35;;;;;;;9.33;6.43;;;13.30;83.30;;;;;;5022564;28;20568;-79
2022/04/30 12:32:07;;;;;;;13.13;7.90;;;13.60;83.40;;;;;;5017315;28;20413;-78
2022/04/30 12:34:41;;;;;;;8.70;6.87;;;13.90;81.40;;;;;;5025156;28;20467;-77
2022/04/30 12:37:08;;;;;;;9.40;6.50;;;14.20;81.80;;;;;;5019227;28;20777;-77
2022/04/30 12:39:34;;;;;;;11.20;6.77;;;13.90;80.20;;;;;;5016883;28;20456;-77
2022/04/30 12:42:00;;;;;;;9.97;7.50;;;13.70;80.90;;;;;;5012983;28;20490;-76
2022/04/30 12:44:27;;;;;;;10.07;6.73;;;13.50;82.20;;;;;;5015451;28;20436;-77
2022/04/30 12:46:53;;;;;;;8.90;6.30;;;13.40;81.70;;;;;;5015223;28;20417;-78
2022/04/30 12:49:19;;;;;;;8.77;6.30;;;13.20;79.70;;;;;;5021042;28;20447;-77
2022/04/30 12:51:50;;;;;;;9.60;6.90;;;13.20;81.20;;;;;;5010948;28;20855;-78
2022/04/30 12:54:16;;;;;;;7.30;5.83;;;13.30;80.60;;;;;;5022117;28;20467;-78
2022/04/30 12:56:44;;;;;;;11.93;7.10;;;13.60;81.10;;;;;;5016109;28;20468;-77
2022/04/30 12:59:10;;;;;;;11.10;6.70;;;13.30;79.70;;;;;;5021649;28;20436;-77
2022/04/30 13:01:39;;;;;;;8.83;5.80;;;13.10;80.00;;;;;;5014087;28;20512;-78
2022/04/30 13:04:05;;;;;;;7.93;5.33;;;12.60;80.50;;;;;;5018829;28;20486;-76
2022/04/30 13:06:31;;;;;;;8.83;6.00;;;12.40;81.40;;;;;;5016892;28;20417;-78
2022/04/30 13:14:26;;;;;;;11.90;7.43;;;12.00;84.00;;;;;;5018021;28;20840;-76